AirNav   Everest Fuels
 
 1567 users online  

20WA Skyraider Skyranch Airport
Yelm, Washington, USA


FAA INFORMATION EFFECTIVE 04 NOVEMBER 2021

Location

FAA Identifier: 20WA
Lat/Long: 46-50-57.2500N 122-28-15.8700W
46-50.954167N 122-28.264500W
46.8492361,-122.4710750
(estimated)
Elevation: 407 ft. / 124 m (estimated)
From city: 8 miles SE of YELM, WA
Time zone: UTC -7 (UTC -8 during Standard Time)
Zip code: 98597

Airport Operations

Airport use: Private use. Permission required prior to landing
Activation date: 10/2020
Control tower: no
ARTCC: SEATTLE CENTER
FSS: SEATTLE FLIGHT SERVICE STATION
Attendance: 
Segmented circle: no

Airport Communications

WX AWOS-3 at PLU (17 nm NE): 128.575 (253-848-2748)
WX ASOS at TCM (17 nm N): PHONE 253-982-3434
WX ASOS at OLM (19 nm W): 135.725 (360-754-0781)

Nearby radio navigation aids

VOR radial/distance  VOR name  Freq  Var
OLMr094/19.1OLYMPIA VORTAC113.4019E
SEAr172/35.8SEATTLE VORTAC116.8019E

Airport Services

Runway Information

Runway 5/23

Dimensions: 1135 x 60 ft. / 346 x 18 m
Surface: turf
RUNWAY 5  RUNWAY 23
Latitude: 46-50.908000N46-51.000333N
Longitude: 122-28.382833W122-28.146167W
Elevation: 405.0 ft.400.0 ft.
Traffic pattern: leftleft
Touchdown point: yes, no lightsyes, no lights

Airport Ownership and Management from official FAA records

Ownership: Privately-owned
Owner: MICHAEL DOWNING
12821 S KARIMME AVE
YUMA, AZ 98597
Phone 931-217-8115
Manager: MICHAEL DOWNING
12821 S KARIMME AVE
YUMA, AZ 85367
Phone 931-217-8115
DOWNING.MIKE@HOTMAIL.COM

Airport Operational Statistics

Aircraft based on the field: 1
Single engine airplanes: 1
    

Additional Remarks

RWY IMPROVEMENTS ONGOING. CALL FOR STS. EXER CTN DUE TO TREES AND STRUCTURES IN CLOSE PROXIMITY TO RWY. PPR IS MANDATORY.

Instrument Procedures

There are no published instrument procedures at 20WA.

Some nearby airports with instrument procedures:

KGRF - Gray Army Airfield (Joint Base Lewis-McChord) (15 nm N)
KPLU - Pierce County Airport - Thun Field (17 nm NE)
KTCM - McChord Field Airport (Joint Base Lewis-McChord) (17 nm N)
KOLM - Olympia Regional Airport (19 nm W)
KCLS - Chehalis-Centralia Airport (23 nm SW)
 
Loc | Ops | Rwys | IFR | FBO | Links
Com | Nav | Svcs | Stats | Notes
Aerial photo
No photo
 
Airport distance calculator
Flying to Skyraider Skyranch Airport? Find the distance to fly.

From to 20WA

Sunrise and sunset
Times for 29-Nov-2021
 Local
(UTC-8)
 Zulu
(UTC)
Morning civil twilight06:5914:59
Sunrise07:3315:33
Sunset16:2300:23
Evening civil twilight16:5800:58

Current date and time
Zulu (UTC)  30-Nov-2021 01:31:48
Local (UTC-8)  29-Nov-2021 17:31:48
 
METAR
KGRF 
14nm N 
300058Z 17003KT 10SM CLR 12/09 A3019 RMK AO2A SLP228 T01240092 $
KTCM 
16nm N 
300058Z AUTO 17003KT 10SM BKN046 11/10 A3021 RMK AO2 SLP235 T01090100 $
KPLU 
17nm NE 
300115Z AUTO 00000KT 10SM OVC048 13/11 A3022 RMK AO2
KOLM 
19nm W 
300054Z 18006KT 10SM BKN036 OVC045 13/11 A3022 RMK AO2 SLP232 T01280111
KCLS 
23nm SW 
300115Z AUTO 19005KT 10SM FEW041 BKN050 13/12 A3023 RMK AO2
KTIW 
25nm N 
300053Z 20003KT 10SM SCT030 SCT050 11/10 A3021 RMK AO2 SLP231 T01110100
TAF
KGRF 
14nm N 
292105Z 2921/0103 18005KT 9999 SCT015 BKN025 QNH3021INS BECMG 3004/3005 19006KT 9999 BKN025 QNH3017INS BECMG 3008/3009 21005KT 9999 OVC010 620802 QNH3016INS BECMG 3014/3015 18010G18KT 8000 -SHRA BKN010 OVC020 611006 QNH3017INS BECMG 3022/3023 19010G17KT 9000 -SHRA BKN015 611006 QNH3016INS TX15/2921Z TN10/3005Z
KTCM 
16nm N 
292100Z 2921/0103 22007KT 9999 SCT020 BKN050 620809 QNH3023INS BECMG 3005/3006 VRB06KT 9999 SCT012 BKN020 620809 QNH3018INS BECMG 3013/3014 21009KT 8000 -SHRA BKN012 OVC020 610809 QNH3017INS TX15/2921Z TN10/3007Z
KOLM 
19nm W 
291720Z 2918/3018 00000KT 6SM BR OVC006 FM292000 21007KT P6SM BKN013 OVC025 FM300000 20005KT P6SM OVC050 FM300600 21004KT 4SM BR SCT005 OVC015
NOTAMs
Click for the latest NOTAMs
NOTAMs are issued by the DoD/FAA and will open in a separate window not controlled by AirNav.

 

 
 

Would you like to see your business listed on this page?

 If your business provides an interesting product or service to pilots, flight crews, aircraft, or users of the Skyraider Skyranch Airport, you should consider listing it here.  To start the listing process, click on the button below
 
Add a business
 

Other Pages about Skyraider Skyranch Airport

Update a link
 
Copyright © AirNav, LLC. All rights reserved. Privacy Policy  Contact